createdAt,value
2022-12-17T00:00:32.929Z,90.71
2022-12-17T00:03:18.784Z,91.22
2022-12-17T00:06:03.832Z,91.31
2022-12-17T00:08:49.233Z,92.45
2022-12-17T00:11:36.018Z,92.29
2022-12-17T00:14:20.905Z,92.28
2022-12-17T00:17:05.939Z,92.54
2022-12-17T00:19:50.836Z,91.82
2022-12-17T00:22:37.041Z,92.24
2022-12-17T00:25:22.335Z,91.98
2022-12-17T00:28:08.545Z,91.76
2022-12-17T00:30:53.424Z,91.55
2022-12-17T00:33:38.764Z,91.74
2022-12-17T00:36:24.431Z,91.82
2022-12-17T00:39:09.593Z,92.24
2022-12-17T00:41:55.084Z,92.14
2022-12-17T00:44:42.561Z,92.13
2022-12-17T00:47:27.299Z,92.35
2022-12-17T00:50:13.316Z,91.87
2022-12-17T00:52:59.816Z,92.41
2022-12-17T00:55:44.606Z,92.15
2022-12-17T00:58:29.591Z,92.91
2022-12-17T01:01:17.895Z,92.01
2022-12-17T01:04:03.309Z,92.45
2022-12-17T01:06:48.217Z,92.02
2022-12-17T01:09:33.077Z,92.41
2022-12-17T01:12:18.275Z,92.89
2022-12-17T01:15:03.139Z,92.70
2022-12-17T01:17:49.354Z,92.58
2022-12-17T01:20:34.251Z,92.65
2022-12-17T01:23:19.233Z,93.23
2022-12-17T01:26:10.237Z,92.84
2022-12-17T01:28:55.006Z,92.36
2022-12-17T01:31:40.169Z,92.03
2022-12-17T01:34:26.583Z,92.09
2022-12-17T01:37:11.501Z,91.79
2022-12-17T01:39:59.759Z,92.40
2022-12-17T01:42:44.664Z,91.60
2022-12-17T01:45:31.739Z,92.04
2022-12-17T01:48:27.876Z,92.14
2022-12-17T01:51:16.899Z,91.76
2022-12-17T01:54:05.154Z,92.15
2022-12-17T01:57:01.789Z,91.53
2022-12-17T01:59:50.471Z,91.84
2022-12-17T02:02:36.014Z,91.48
2022-12-17T02:05:21.276Z,91.11
2022-12-17T02:08:26.582Z,91.56
2022-12-17T02:11:15.138Z,91.31
2022-12-17T02:14:02.496Z,91.12
2022-12-17T02:16:51.068Z,90.78
2022-12-17T02:19:43.372Z,91.43
2022-12-17T02:22:35.364Z,90.69
2022-12-17T02:25:27.135Z,91.32
2022-12-17T02:28:12.921Z,90.89
2022-12-17T02:31:09.530Z,90.71
2022-12-17T02:33:55.018Z,91.44
2022-12-17T02:36:40.140Z,90.62
2022-12-17T02:39:24.918Z,90.63
2022-12-17T02:42:12.608Z,91.10
2022-12-17T02:45:00.951Z,90.96
2022-12-17T02:47:46.562Z,91.19
2022-12-17T02:50:31.834Z,91.13
2022-12-17T02:53:18.412Z,90.64
2022-12-17T02:56:03.560Z,90.80
2022-12-17T02:58:51.640Z,90.46
2022-12-17T03:01:38.264Z,89.93
2022-12-17T03:04:34.817Z,89.80
2022-12-17T03:07:20.105Z,89.74
2022-12-17T03:10:06.079Z,89.58
2022-12-17T03:12:51.870Z,89.96
2022-12-17T03:15:36.624Z,89.34
2022-12-17T03:18:23.276Z,90.34
2022-12-17T03:21:12.059Z,89.60
2022-12-17T03:23:57.356Z,90.28
2022-12-17T03:26:42.225Z,90.32
2022-12-17T03:29:26.927Z,89.90
2022-12-17T03:32:11.868Z,90.12
2022-12-17T03:34:58.357Z,89.72
2022-12-17T03:37:43.306Z,90.25
2022-12-17T03:40:29.219Z,90.17
2022-12-17T03:43:14.031Z,90.01
2022-12-17T03:45:59.014Z,89.28
2022-12-17T03:48:44.321Z,90.10
2022-12-17T03:51:30.888Z,89.88
2022-12-17T03:54:16.231Z,88.98
2022-12-17T03:57:01.058Z,89.33
2022-12-17T03:59:46.330Z,88.82
2022-12-17T04:02:31.418Z,88.84
2022-12-17T04:05:20.123Z,89.77
2022-12-17T04:08:07.227Z,89.38
2022-12-17T04:10:52.598Z,89.18
2022-12-17T04:13:41.104Z,89.11
2022-12-17T04:16:26.762Z,89.34
2022-12-17T04:19:11.745Z,89.79
2022-12-17T04:21:56.660Z,89.11
2022-12-17T04:24:43.120Z,89.75
2022-12-17T04:27:28.268Z,89.93
2022-12-17T04:30:13.260Z,89.64
2022-12-17T04:33:12.865Z,89.98
2022-12-17T04:35:58.104Z,89.12
2022-12-17T04:38:43.026Z,88.97
2022-12-17T04:41:29.458Z,89.82
2022-12-17T04:44:14.662Z,90.07
2022-12-17T04:46:59.734Z,88.91
2022-12-17T04:49:44.919Z,88.79
2022-12-17T04:52:29.948Z,88.34
2022-12-17T04:55:14.855Z,88.77
2022-12-17T04:58:00.980Z,88.35
2022-12-17T05:00:45.953Z,88.70
2022-12-17T05:03:32.065Z,88.79
2022-12-17T05:06:17.196Z,89.33
2022-12-17T05:09:02.122Z,89.56
2022-12-17T05:11:47.539Z,89.92
2022-12-17T05:14:36.954Z,90.46
2022-12-17T05:17:22.342Z,91.66
2022-12-17T05:20:07.101Z,90.96
2022-12-17T05:22:55.042Z,91.85
2022-12-17T05:25:39.995Z,91.86
2022-12-17T05:28:33.412Z,92.53
2022-12-17T05:31:19.751Z,93.72
2022-12-17T05:34:04.661Z,95.13
2022-12-17T05:36:49.510Z,95.57
2022-12-17T05:39:34.400Z,95.44
2022-12-17T05:42:15.791Z,95.73
2022-12-17T05:45:15.224Z,96.14
2022-12-17T05:48:01.648Z,96.13
2022-12-17T05:50:46.502Z,96.69
2022-12-17T05:53:31.687Z,97.85
2022-12-17T05:56:16.574Z,98.49
2022-12-17T05:59:01.602Z,98.57
2022-12-17T06:01:46.643Z,98.64
2022-12-17T06:04:33.319Z,98.26
2022-12-17T06:07:18.234Z,98.62
2022-12-17T06:10:03.298Z,98.54
2022-12-17T06:12:48.529Z,98.20
2022-12-17T06:15:33.829Z,98.95
2022-12-17T06:18:19.034Z,98.44
2022-12-17T06:21:05.600Z,98.51
2022-12-17T06:23:50.465Z,98.39
2022-12-17T06:26:35.484Z,98.20
2022-12-17T06:29:20.325Z,97.61
2022-12-17T06:32:05.346Z,97.08
2022-12-17T06:34:50.187Z,97.20
2022-12-17T06:37:36.584Z,97.69
2022-12-17T06:40:21.983Z,100.00
2022-12-17T06:43:13.396Z,100.00
2022-12-17T06:45:58.175Z,100.00
2022-12-17T06:48:43.053Z,100.00
2022-12-17T06:51:27.771Z,100.00
2022-12-17T06:54:13.927Z,98.84
2022-12-17T06:56:58.673Z,100.00
2022-12-17T06:59:43.644Z,100.00
2022-12-17T07:02:31.408Z,95.83
2022-12-17T07:05:16.220Z,98.39
2022-12-17T07:08:01.113Z,95.61
2022-12-17T07:10:47.276Z,93.24
2022-12-17T07:13:32.041Z,92.27
2022-12-17T07:16:17.072Z,93.49
2022-12-17T07:20:30.435Z,92.65
2022-12-17T07:23:17.947Z,92.81
2022-12-17T07:26:03.369Z,92.88
2022-12-17T07:28:48.617Z,94.71
2022-12-17T07:31:34.091Z,94.30
2022-12-17T07:34:19.062Z,92.80
2022-12-17T07:37:05.691Z,92.39
2022-12-17T07:39:50.984Z,92.62
2022-12-17T07:42:36.214Z,91.68
2022-12-17T07:45:21.354Z,91.47
2022-12-17T07:48:10.302Z,91.25
2022-12-17T07:50:55.628Z,91.67
2022-12-17T07:53:42.197Z,92.43
2022-12-17T07:56:27.497Z,91.30
2022-12-17T07:59:12.912Z,94.29
2022-12-17T08:01:58.618Z,100.00
2022-12-17T08:04:43.694Z,100.00
2022-12-17T08:07:25.164Z,93.48
2022-12-17T08:10:11.898Z,90.65
2022-12-17T08:12:57.224Z,89.47
2022-12-17T08:15:42.416Z,85.93
2022-12-17T08:18:27.944Z,87.83
2022-12-17T08:21:12.494Z,87.14
2022-12-17T08:24:06.132Z,87.26
2022-12-17T08:26:52.775Z,85.87
2022-12-17T08:29:38.252Z,85.68
2022-12-17T08:32:23.582Z,83.84
2022-12-17T08:35:08.718Z,92.60
2022-12-17T08:37:53.980Z,83.54
2022-12-17T08:40:39.336Z,81.20
2022-12-17T08:43:26.113Z,80.64
2022-12-17T08:46:11.800Z,80.71
2022-12-17T08:48:57.309Z,80.37
2022-12-17T08:51:43.230Z,80.01
2022-12-17T08:54:28.498Z,80.41
2022-12-17T08:57:22.587Z,79.58
2022-12-17T09:00:17.724Z,78.53
2022-12-17T09:03:03.183Z,77.94
2022-12-17T09:05:48.837Z,77.74
2022-12-17T09:08:30.483Z,77.58
2022-12-17T09:11:17.803Z,77.21
2022-12-17T09:14:03.093Z,76.76
2022-12-17T09:17:04.319Z,77.22
2022-12-17T09:19:49.558Z,76.47
2022-12-17T09:22:34.489Z,75.94
2022-12-17T09:25:19.499Z,75.84
2022-12-17T09:28:04.467Z,75.54
2022-12-17T09:30:49.907Z,76.38
2022-12-17T09:33:37.006Z,75.58
2022-12-17T09:36:23.234Z,75.54
2022-12-17T09:39:08.634Z,74.10
2022-12-17T09:42:05.120Z,74.61
2022-12-17T09:45:00.015Z,73.88
2022-12-17T09:47:54.448Z,72.41
2022-12-17T09:50:41.003Z,72.86
2022-12-17T09:53:41.547Z,77.35
2022-12-17T09:56:30.266Z,73.63
2022-12-17T09:59:15.495Z,73.63
2022-12-17T10:02:01.047Z,72.03
2022-12-17T10:04:52.103Z,71.21
2022-12-17T10:07:47.388Z,72.68
2022-12-17T10:10:36.276Z,72.99
2022-12-17T10:13:29.376Z,71.81
2022-12-17T10:16:14.798Z,71.27
2022-12-17T10:19:00.882Z,68.22
2022-12-17T10:21:49.868Z,69.73
2022-12-17T10:24:36.273Z,68.43
2022-12-17T10:27:27.587Z,67.37
2022-12-17T10:30:13.033Z,68.38
2022-12-17T10:32:58.351Z,68.40
2022-12-17T10:35:53.696Z,69.21
2022-12-17T10:38:41.469Z,78.96
2022-12-17T10:41:39.668Z,78.28
2022-12-17T10:44:42.314Z,81.38
2022-12-17T10:47:31.105Z,78.44
2022-12-17T10:50:17.723Z,69.96
2022-12-17T10:53:05.202Z,79.52
2022-12-17T10:55:51.995Z,65.47
2022-12-17T10:58:44.255Z,63.00
2022-12-17T11:01:36.643Z,65.31
2022-12-17T11:04:21.658Z,66.01
2022-12-17T11:07:10.733Z,65.38
2022-12-17T11:10:07.064Z,65.46
2022-12-17T11:12:57.637Z,65.34
2022-12-17T11:15:50.085Z,65.67
2022-12-17T11:18:39.253Z,64.52
2022-12-17T11:21:29.238Z,63.28
2022-12-17T11:24:22.456Z,61.41
2022-12-17T11:27:10.678Z,62.10
2022-12-17T11:29:55.811Z,61.32
2022-12-17T11:33:05.736Z,62.33
2022-12-17T11:36:00.922Z,61.88
2022-12-17T11:38:54.000Z,60.75
2022-12-17T11:41:55.304Z,58.86
2022-12-17T11:45:04.835Z,58.92
2022-12-17T11:48:01.234Z,58.33
2022-12-17T11:50:56.582Z,59.43
2022-12-17T11:53:58.557Z,56.20
2022-12-17T11:56:49.350Z,56.74
2022-12-17T11:59:50.933Z,56.07
2022-12-17T12:02:53.946Z,55.05
2022-12-17T12:05:51.994Z,54.56
2022-12-17T12:08:49.945Z,54.54
2022-12-17T12:11:45.909Z,53.99
2022-12-17T12:14:47.266Z,54.36
2022-12-17T12:17:46.339Z,53.09
2022-12-17T12:20:45.673Z,54.94
2022-12-17T12:23:39.454Z,53.72
2022-12-17T12:26:41.367Z,54.76
2022-12-17T12:29:40.442Z,55.53
2022-12-17T12:32:33.941Z,55.67
2022-12-17T12:35:24.138Z,55.91
2022-12-17T12:38:09.298Z,57.73
2022-12-17T12:41:04.947Z,58.21
2022-12-17T12:43:54.003Z,58.89
2022-12-17T12:46:44.810Z,59.99
2022-12-17T12:49:38.621Z,60.24
2022-12-17T12:52:24.131Z,61.86
2022-12-17T12:55:11.608Z,62.39
2022-12-17T12:58:00.078Z,60.67
2022-12-17T13:00:53.013Z,59.50
2022-12-17T13:03:47.486Z,61.08
2022-12-17T13:06:36.215Z,59.03
2022-12-17T13:09:07.732Z,58.35
2022-12-17T13:11:38.808Z,58.08
2022-12-17T13:14:21.403Z,59.35
2022-12-17T13:16:56.525Z,60.64
2022-12-17T13:19:36.553Z,60.10
2022-12-17T13:22:29.769Z,61.98
2022-12-17T13:25:14.987Z,61.85
2022-12-17T13:27:43.768Z,60.53
2022-12-17T13:30:33.619Z,61.74
2022-12-17T13:33:17.067Z,67.20
2022-12-17T13:35:58.739Z,61.50
2022-12-17T13:38:37.876Z,60.44
2022-12-17T13:41:10.446Z,59.54
2022-12-17T13:43:44.614Z,58.56
2022-12-17T13:46:20.769Z,56.43
2022-12-17T13:48:58.611Z,67.32
2022-12-17T13:51:28.097Z,58.21
2022-12-17T13:53:57.829Z,56.48
2022-12-17T13:56:27.897Z,55.94
2022-12-17T13:58:58.042Z,55.63
2022-12-17T14:01:27.063Z,55.70
2022-12-17T14:04:06.368Z,56.70
2022-12-17T14:06:37.427Z,55.94
2022-12-17T14:09:08.552Z,55.70
2022-12-17T14:11:56.275Z,56.19
2022-12-17T14:14:31.133Z,57.40
2022-12-17T14:16:59.318Z,58.27
2022-12-17T14:19:30.034Z,58.51
2022-12-17T14:21:58.073Z,60.04
2022-12-17T14:24:29.423Z,59.77
2022-12-17T14:26:59.230Z,64.79
2022-12-17T14:29:28.700Z,65.87
2022-12-17T14:31:58.899Z,62.50
2022-12-17T14:34:28.475Z,62.98
2022-12-17T14:36:59.061Z,63.88
2022-12-17T14:39:28.932Z,63.75
2022-12-17T14:42:16.370Z,65.26
2022-12-17T14:44:52.148Z,66.30
2022-12-17T14:47:23.068Z,66.99
2022-12-17T14:50:02.437Z,69.55
2022-12-17T14:52:40.307Z,70.00
2022-12-17T14:55:31.366Z,70.46
2022-12-17T14:58:16.233Z,72.29
2022-12-17T15:00:47.800Z,72.95
2022-12-17T15:03:20.601Z,72.61
2022-12-17T15:05:54.032Z,73.71
2022-12-17T15:08:22.564Z,74.39
2022-12-17T15:10:50.812Z,74.75
2022-12-17T15:13:18.523Z,75.04
2022-12-17T15:15:46.622Z,75.63
2022-12-17T15:18:14.376Z,76.20
2022-12-17T15:20:42.344Z,76.35
2022-12-17T15:23:16.717Z,75.50
2022-12-17T15:25:46.898Z,75.37
2022-12-17T15:28:15.579Z,76.80
2022-12-17T15:30:43.523Z,77.38
2022-12-17T15:33:11.797Z,97.67
2022-12-17T15:35:39.930Z,96.98
2022-12-17T15:38:08.063Z,88.87
2022-12-17T15:40:38.646Z,84.53
2022-12-17T15:43:11.088Z,81.99
2022-12-17T15:45:39.184Z,82.34
2022-12-17T15:48:07.034Z,81.42
2022-12-17T15:50:34.946Z,83.38
2022-12-17T15:53:02.507Z,82.72
2022-12-17T15:55:30.669Z,82.85
2022-12-17T15:57:59.851Z,82.66
2022-12-17T16:00:27.440Z,82.94
2022-12-17T16:02:55.133Z,82.83
2022-12-17T16:05:23.634Z,83.57
2022-12-17T16:07:52.084Z,83.06
2022-12-17T16:10:20.085Z,83.71
2022-12-17T16:12:47.793Z,84.58
2022-12-17T16:15:16.718Z,84.30
2022-12-17T16:17:44.312Z,85.34
2022-12-17T16:20:12.742Z,85.42
2022-12-17T16:22:40.405Z,85.34
2022-12-17T16:25:08.693Z,85.81
2022-12-17T16:27:36.449Z,85.88
2022-12-17T16:30:04.306Z,85.17
2022-12-17T16:32:36.548Z,85.69
2022-12-17T16:35:05.698Z,85.28
2022-12-17T16:37:33.353Z,86.17
2022-12-17T16:40:01.036Z,85.25
2022-12-17T16:42:29.102Z,84.25
2022-12-17T16:44:59.140Z,85.35
2022-12-17T16:47:26.713Z,85.90
2022-12-17T16:49:55.671Z,86.93
2022-12-17T16:52:23.415Z,86.29
2022-12-17T16:54:50.986Z,85.00
2022-12-17T16:57:18.552Z,86.11
2022-12-17T16:59:46.054Z,85.52
2022-12-17T17:02:15.760Z,87.03
2022-12-17T17:04:43.540Z,86.73
2022-12-17T17:07:14.727Z,86.49
2022-12-17T17:09:42.334Z,87.35
2022-12-17T17:12:11.787Z,87.49
2022-12-17T17:14:40.246Z,87.62
2022-12-17T17:17:08.040Z,86.49
2022-12-17T17:19:35.670Z,86.82
2022-12-17T17:22:03.259Z,87.58
2022-12-17T17:24:32.243Z,88.32
2022-12-17T17:27:00.156Z,87.32
2022-12-17T17:29:27.724Z,87.51
2022-12-17T17:32:11.854Z,87.27
2022-12-17T17:34:41.317Z,87.62
2022-12-17T17:37:08.990Z,87.30
2022-12-17T17:39:37.892Z,94.90
2022-12-17T17:42:05.735Z,95.49
2022-12-17T17:44:33.328Z,92.59
2022-12-17T17:47:01.360Z,89.30
2022-12-17T17:49:29.022Z,88.68
2022-12-17T17:52:12.446Z,88.14
2022-12-17T17:54:41.495Z,88.31
2022-12-17T17:57:10.075Z,87.16
2022-12-17T17:59:39.241Z,86.83
2022-12-17T18:02:07.074Z,87.30
2022-12-17T18:04:34.754Z,86.30
2022-12-17T18:07:24.887Z,87.25
2022-12-17T18:09:51.179Z,87.58
2022-12-17T18:12:36.304Z,87.37
2022-12-17T18:15:19.363Z,87.78
2022-12-17T18:17:50.943Z,87.64
2022-12-17T18:20:18.769Z,87.64
2022-12-17T18:22:47.150Z,87.09
2022-12-17T18:25:17.610Z,86.72
2022-12-17T18:27:45.477Z,87.05
2022-12-17T18:30:13.966Z,86.27
2022-12-17T18:32:42.129Z,87.17
2022-12-17T18:35:10.339Z,87.10
2022-12-17T18:37:38.009Z,88.72
2022-12-17T18:40:07.329Z,89.22
2022-12-17T18:42:53.942Z,88.14
2022-12-17T18:45:21.806Z,88.11
2022-12-17T18:47:49.540Z,88.10
2022-12-17T18:50:17.338Z,88.21
2022-12-17T18:52:45.022Z,88.01
2022-12-17T18:55:12.676Z,87.48
2022-12-17T18:57:41.631Z,88.26
2022-12-17T19:00:10.766Z,87.76
2022-12-17T19:02:38.512Z,88.33
2022-12-17T19:05:06.611Z,87.59
2022-12-17T19:07:34.223Z,86.74
2022-12-17T19:10:01.773Z,86.66
2022-12-17T19:12:29.370Z,87.42
2022-12-17T19:14:58.291Z,87.41
2022-12-17T19:17:26.343Z,87.91
2022-12-17T19:19:53.904Z,86.05
2022-12-17T19:22:21.537Z,86.94
2022-12-17T19:24:49.083Z,86.41
2022-12-17T19:27:16.836Z,88.91
2022-12-17T19:29:49.116Z,88.20
2022-12-17T19:32:18.745Z,88.71
2022-12-17T19:34:46.346Z,88.07
2022-12-17T19:37:13.986Z,88.55
2022-12-17T19:39:41.577Z,88.99
2022-12-17T19:42:24.163Z,88.12
2022-12-17T19:44:52.013Z,87.21
2022-12-17T19:47:21.037Z,88.83
2022-12-17T19:49:48.599Z,88.49
2022-12-17T19:52:16.262Z,88.52
2022-12-17T19:54:43.919Z,87.96
2022-12-17T19:57:11.557Z,87.86
2022-12-17T19:59:39.088Z,86.71
2022-12-17T20:02:06.752Z,86.05
2022-12-17T20:04:35.913Z,85.89
2022-12-17T20:07:03.471Z,85.16
2022-12-17T20:09:31.029Z,86.30
2022-12-17T20:11:58.591Z,84.98
2022-12-17T20:14:29.180Z,86.36
2022-12-17T20:16:58.623Z,85.95
2022-12-17T20:19:30.873Z,85.96
2022-12-17T20:22:01.319Z,86.18
2022-12-17T20:24:31.920Z,86.04
2022-12-17T20:27:01.179Z,85.66
2022-12-17T20:29:29.078Z,85.58
2022-12-17T20:31:56.959Z,85.58
2022-12-17T20:34:25.323Z,85.48
2022-12-17T20:36:53.937Z,86.50
2022-12-17T20:39:26.976Z,86.10
2022-12-17T20:41:55.103Z,87.42
2022-12-17T20:44:22.727Z,86.73
2022-12-17T20:46:50.280Z,87.73
2022-12-17T20:49:17.841Z,87.59
2022-12-17T20:51:45.430Z,87.53
2022-12-17T20:54:13.006Z,85.44
2022-12-17T20:56:41.977Z,86.14
2022-12-17T20:59:14.129Z,87.74
2022-12-17T21:01:42.062Z,88.26
2022-12-17T21:04:10.502Z,87.75
2022-12-17T21:06:39.861Z,87.65
2022-12-17T21:09:07.991Z,88.13
2022-12-17T21:11:37.096Z,88.09
2022-12-17T21:14:10.937Z,87.76
2022-12-17T21:16:40.008Z,87.85
2022-12-17T21:19:10.289Z,87.08
2022-12-17T21:21:39.566Z,86.54
2022-12-17T21:24:08.838Z,87.77
2022-12-17T21:26:38.637Z,88.57
2022-12-17T21:29:09.393Z,88.91
2022-12-17T21:31:40.246Z,89.33
2022-12-17T21:34:10.891Z,89.25
2022-12-17T21:36:38.916Z,88.86
2022-12-17T21:39:09.303Z,88.23
2022-12-17T21:41:39.307Z,88.30
2022-12-17T21:44:14.642Z,89.42
2022-12-17T21:46:43.453Z,89.29
2022-12-17T21:49:15.600Z,95.24
2022-12-17T21:51:43.352Z,94.01
2022-12-17T21:54:15.677Z,91.68
2022-12-17T21:56:46.686Z,90.47
2022-12-17T21:59:15.638Z,89.41
2022-12-17T22:01:43.375Z,89.29
2022-12-17T22:04:11.073Z,88.40
2022-12-17T22:06:43.298Z,88.44
2022-12-17T22:09:24.067Z,88.68
2022-12-17T22:12:16.868Z,89.00
2022-12-17T22:14:45.950Z,88.05
2022-12-17T22:17:13.528Z,88.12
2022-12-17T22:19:41.334Z,88.62
2022-12-17T22:22:08.985Z,88.59
2022-12-17T22:24:36.896Z,89.06
2022-12-17T22:27:06.862Z,88.78
2022-12-17T22:29:55.306Z,88.70
2022-12-17T22:32:50.449Z,89.80
2022-12-17T22:36:32.601Z,93.44
2022-12-17T22:42:36.446Z,90.52
2022-12-17T22:44:02.282Z,88.52
2022-12-17T22:44:38.631Z,87.74
2022-12-17T22:46:30.655Z,86.82
2022-12-17T22:49:00.075Z,87.14
2022-12-17T22:51:33.037Z,86.85
2022-12-17T22:54:10.215Z,86.74
2022-12-17T22:57:15.170Z,87.42
2022-12-17T22:59:27.853Z,86.90
2022-12-17T23:01:55.501Z,86.66
2022-12-17T23:04:24.570Z,86.85
2022-12-17T23:06:52.254Z,87.31
2022-12-17T23:09:20.476Z,87.34
2022-12-17T23:11:49.048Z,87.95
2022-12-17T23:14:17.346Z,88.71
2022-12-17T23:16:45.233Z,88.48
2022-12-17T23:19:13.557Z,88.83
2022-12-17T23:21:42.450Z,89.00
2022-12-17T23:24:10.523Z,99.96
2022-12-17T23:26:39.208Z,100.00
2022-12-17T23:29:08.681Z,100.00
2022-12-17T23:31:38.672Z,100.00
2022-12-17T23:34:07.821Z,100.00
2022-12-17T23:36:36.347Z,100.00
2022-12-17T23:39:05.842Z,96.72
2022-12-17T23:41:33.523Z,94.49
2022-12-17T23:44:01.257Z,92.89
2022-12-17T23:46:31.401Z,91.18
2022-12-17T23:48:59.420Z,89.87
2022-12-17T23:51:28.125Z,89.13
2022-12-17T23:53:56.133Z,89.32
2022-12-17T23:56:27.105Z,90.54
2022-12-17T23:58:56.533Z,90.57
